sensor_id;sensor_type;location;lat;lon;timestamp;P1;durP1;ratioP1;P2;durP2;ratioP2
39370;SDS011;25099;51.946;4.838;2023-05-19T00:01:54;5.78;;;3.85;;
39370;SDS011;25099;51.946;4.838;2023-05-19T00:04:20;7.78;;;3.83;;
39370;SDS011;25099;51.946;4.838;2023-05-19T00:06:49;7.25;;;3.30;;
39370;SDS011;25099;51.946;4.838;2023-05-19T00:09:15;6.90;;;3.45;;
39370;SDS011;25099;51.946;4.838;2023-05-19T00:11:41;6.57;;;3.75;;
39370;SDS011;25099;51.946;4.838;2023-05-19T00:14:08;12.35;;;4.68;;
39370;SDS011;25099;51.946;4.838;2023-05-19T00:16:34;6.53;;;3.28;;
39370;SDS011;25099;51.946;4.838;2023-05-19T00:19:02;9.32;;;4.00;;
39370;SDS011;25099;51.946;4.838;2023-05-19T00:21:29;8.88;;;3.70;;
39370;SDS011;25099;51.946;4.838;2023-05-19T00:23:55;6.65;;;3.97;;
39370;SDS011;25099;51.946;4.838;2023-05-19T00:26:22;7.22;;;4.07;;
39370;SDS011;25099;51.946;4.838;2023-05-19T00:28:49;11.65;;;4.40;;
39370;SDS011;25099;51.946;4.838;2023-05-19T00:31:14;9.95;;;4.18;;
39370;SDS011;25099;51.946;4.838;2023-05-19T00:33:40;8.80;;;3.83;;
39370;SDS011;25099;51.946;4.838;2023-05-19T00:36:05;11.57;;;4.20;;
39370;SDS011;25099;51.946;4.838;2023-05-19T00:38:32;10.70;;;3.92;;
39370;SDS011;25099;51.946;4.838;2023-05-19T00:40:59;10.65;;;4.75;;
39370;SDS011;25099;51.946;4.838;2023-05-19T00:43:26;8.52;;;3.97;;
39370;SDS011;25099;51.946;4.838;2023-05-19T00:45:53;5.50;;;3.92;;
39370;SDS011;25099;51.946;4.838;2023-05-19T00:48:19;10.57;;;4.55;;
39370;SDS011;25099;51.946;4.838;2023-05-19T00:50:45;7.78;;;4.07;;
39370;SDS011;25099;51.946;4.838;2023-05-19T00:53:12;8.55;;;4.00;;
39370;SDS011;25099;51.946;4.838;2023-05-19T00:55:40;9.07;;;3.83;;
39370;SDS011;25099;51.946;4.838;2023-05-19T00:58:07;7.93;;;4.03;;
39370;SDS011;25099;51.946;4.838;2023-05-19T01:00:34;9.50;;;3.95;;
39370;SDS011;25099;51.946;4.838;2023-05-19T01:03:00;4.72;;;3.45;;
39370;SDS011;25099;51.946;4.838;2023-05-19T01:05:26;8.52;;;4.20;;
39370;SDS011;25099;51.946;4.838;2023-05-19T01:07:52;11.88;;;4.13;;
39370;SDS011;25099;51.946;4.838;2023-05-19T01:10:20;9.48;;;4.32;;
39370;SDS011;25099;51.946;4.838;2023-05-19T01:12:46;10.10;;;4.47;;
39370;SDS011;25099;51.946;4.838;2023-05-19T01:15:12;7.22;;;4.15;;
39370;SDS011;25099;51.946;4.838;2023-05-19T01:17:47;7.97;;;3.92;;
39370;SDS011;25099;51.946;4.838;2023-05-19T01:20:26;8.57;;;4.57;;
39370;SDS011;25099;51.946;4.838;2023-05-19T01:31:26;12.23;;;4.25;;
39370;SDS011;25099;51.946;4.838;2023-05-19T01:33:52;7.20;;;4.07;;
39370;SDS011;25099;51.946;4.838;2023-05-19T01:36:20;6.35;;;3.30;;
39370;SDS011;25099;51.946;4.838;2023-05-19T01:38:48;6.57;;;3.83;;
39370;SDS011;25099;51.946;4.838;2023-05-19T01:41:15;7.88;;;3.50;;
39370;SDS011;25099;51.946;4.838;2023-05-19T01:43:42;10.20;;;3.90;;
39370;SDS011;25099;51.946;4.838;2023-05-19T01:46:09;9.75;;;3.65;;
39370;SDS011;25099;51.946;4.838;2023-05-19T01:48:35;11.75;;;4.35;;
39370;SDS011;25099;51.946;4.838;2023-05-19T01:51:02;9.52;;;4.40;;
39370;SDS011;25099;51.946;4.838;2023-05-19T01:53:29;10.50;;;3.58;;
39370;SDS011;25099;51.946;4.838;2023-05-19T01:55:55;9.23;;;3.88;;
39370;SDS011;25099;51.946;4.838;2023-05-19T02:01:17;8.52;;;3.95;;
39370;SDS011;25099;51.946;4.838;2023-05-19T02:06:40;8.60;;;4.00;;
39370;SDS011;25099;51.946;4.838;2023-05-19T02:17:13;14.07;;;4.22;;
39370;SDS011;25099;51.946;4.838;2023-05-19T02:19:44;9.77;;;4.10;;
39370;SDS011;25099;51.946;4.838;2023-05-19T02:22:10;7.00;;;4.03;;
39370;SDS011;25099;51.946;4.838;2023-05-19T02:24:35;7.75;;;4.38;;
39370;SDS011;25099;51.946;4.838;2023-05-19T02:27:01;10.05;;;3.50;;
39370;SDS011;25099;51.946;4.838;2023-05-19T02:29:27;7.00;;;4.05;;
39370;SDS011;25099;51.946;4.838;2023-05-19T02:31:52;8.07;;;3.67;;
39370;SDS011;25099;51.946;4.838;2023-05-19T02:34:18;5.70;;;3.88;;
39370;SDS011;25099;51.946;4.838;2023-05-19T02:36:44;8.07;;;4.00;;
39370;SDS011;25099;51.946;4.838;2023-05-19T02:39:09;7.50;;;4.15;;
39370;SDS011;25099;51.946;4.838;2023-05-19T02:41:35;6.80;;;3.35;;
39370;SDS011;25099;51.946;4.838;2023-05-19T02:44:02;6.63;;;4.20;;
39370;SDS011;25099;51.946;4.838;2023-05-19T02:46:27;7.95;;;4.32;;
39370;SDS011;25099;51.946;4.838;2023-05-19T02:48:53;10.80;;;4.60;;
39370;SDS011;25099;51.946;4.838;2023-05-19T02:51:18;10.02;;;4.82;;
39370;SDS011;25099;51.946;4.838;2023-05-19T02:53:44;9.88;;;3.72;;
39370;SDS011;25099;51.946;4.838;2023-05-19T02:56:10;6.80;;;4.25;;
39370;SDS011;25099;51.946;4.838;2023-05-19T02:58:35;9.40;;;4.22;;
39370;SDS011;25099;51.946;4.838;2023-05-19T03:01:01;8.35;;;4.38;;
39370;SDS011;25099;51.946;4.838;2023-05-19T03:03:26;6.47;;;4.10;;
39370;SDS011;25099;51.946;4.838;2023-05-19T03:05:52;12.10;;;4.55;;
39370;SDS011;25099;51.946;4.838;2023-05-19T03:08:18;9.05;;;4.72;;
39370;SDS011;25099;51.946;4.838;2023-05-19T03:10:44;13.02;;;4.75;;
39370;SDS011;25099;51.946;4.838;2023-05-19T03:13:10;7.18;;;4.28;;
39370;SDS011;25099;51.946;4.838;2023-05-19T03:15:36;15.27;;;4.40;;
39370;SDS011;25099;51.946;4.838;2023-05-19T03:18:02;12.38;;;4.82;;
39370;SDS011;25099;51.946;4.838;2023-05-19T03:20:28;6.60;;;4.53;;
39370;SDS011;25099;51.946;4.838;2023-05-19T03:22:55;10.15;;;4.80;;
39370;SDS011;25099;51.946;4.838;2023-05-19T03:25:21;6.05;;;4.25;;
39370;SDS011;25099;51.946;4.838;2023-05-19T03:27:47;6.85;;;4.45;;
39370;SDS011;25099;51.946;4.838;2023-05-19T03:30:12;9.05;;;4.32;;
39370;SDS011;25099;51.946;4.838;2023-05-19T03:32:38;9.57;;;4.32;;
39370;SDS011;25099;51.946;4.838;2023-05-19T03:35:04;12.10;;;5.20;;
39370;SDS011;25099;51.946;4.838;2023-05-19T03:37:30;9.15;;;4.72;;
39370;SDS011;25099;51.946;4.838;2023-05-19T03:39:56;10.70;;;5.05;;
39370;SDS011;25099;51.946;4.838;2023-05-19T03:42:22;11.82;;;4.32;;
39370;SDS011;25099;51.946;4.838;2023-05-19T03:44:48;9.82;;;4.55;;
39370;SDS011;25099;51.946;4.838;2023-05-19T03:47:14;11.80;;;4.90;;
39370;SDS011;25099;51.946;4.838;2023-05-19T03:49:39;9.80;;;4.88;;
39370;SDS011;25099;51.946;4.838;2023-05-19T03:52:05;9.07;;;4.72;;
39370;SDS011;25099;51.946;4.838;2023-05-19T03:54:31;8.05;;;4.53;;
39370;SDS011;25099;51.946;4.838;2023-05-19T03:56:56;12.13;;;4.80;;
39370;SDS011;25099;51.946;4.838;2023-05-19T03:59:22;12.85;;;4.95;;
39370;SDS011;25099;51.946;4.838;2023-05-19T04:01:48;6.57;;;4.13;;
39370;SDS011;25099;51.946;4.838;2023-05-19T04:04:14;8.02;;;4.60;;
39370;SDS011;25099;51.946;4.838;2023-05-19T04:06:40;6.70;;;4.28;;
39370;SDS011;25099;51.946;4.838;2023-05-19T04:09:12;10.27;;;4.38;;
39370;SDS011;25099;51.946;4.838;2023-05-19T04:11:39;7.93;;;4.65;;
39370;SDS011;25099;51.946;4.838;2023-05-19T04:14:05;7.60;;;4.40;;
39370;SDS011;25099;51.946;4.838;2023-05-19T04:16:31;10.13;;;5.13;;
39370;SDS011;25099;51.946;4.838;2023-05-19T04:18:57;9.23;;;4.88;;
39370;SDS011;25099;51.946;4.838;2023-05-19T04:21:22;11.38;;;4.43;;
39370;SDS011;25099;51.946;4.838;2023-05-19T04:23:48;14.65;;;4.53;;
39370;SDS011;25099;51.946;4.838;2023-05-19T04:26:13;16.45;;;5.05;;
39370;SDS011;25099;51.946;4.838;2023-05-19T04:28:40;15.55;;;5.97;;
39370;SDS011;25099;51.946;4.838;2023-05-19T04:31:08;10.25;;;5.55;;
39370;SDS011;25099;51.946;4.838;2023-05-19T04:33:35;9.93;;;5.40;;
39370;SDS011;25099;51.946;4.838;2023-05-19T04:36:01;7.82;;;4.75;;
39370;SDS011;25099;51.946;4.838;2023-05-19T04:38:29;13.18;;;5.97;;
39370;SDS011;25099;51.946;4.838;2023-05-19T04:40:55;11.40;;;5.53;;
39370;SDS011;25099;51.946;4.838;2023-05-19T04:43:24;14.45;;;5.28;;
39370;SDS011;25099;51.946;4.838;2023-05-19T04:45:51;7.93;;;5.47;;
39370;SDS011;25099;51.946;4.838;2023-05-19T04:48:16;11.18;;;5.32;;
39370;SDS011;25099;51.946;4.838;2023-05-19T04:50:42;10.38;;;4.93;;
39370;SDS011;25099;51.946;4.838;2023-05-19T04:53:08;10.57;;;4.95;;
39370;SDS011;25099;51.946;4.838;2023-05-19T04:55:35;6.30;;;5.05;;
39370;SDS011;25099;51.946;4.838;2023-05-19T04:58:02;13.18;;;5.25;;
39370;SDS011;25099;51.946;4.838;2023-05-19T05:00:28;7.70;;;5.13;;
39370;SDS011;25099;51.946;4.838;2023-05-19T05:02:53;11.15;;;4.93;;
39370;SDS011;25099;51.946;4.838;2023-05-19T05:05:21;9.63;;;5.28;;
39370;SDS011;25099;51.946;4.838;2023-05-19T05:07:47;11.57;;;6.07;;
39370;SDS011;25099;51.946;4.838;2023-05-19T05:10:13;11.18;;;5.88;;
39370;SDS011;25099;51.946;4.838;2023-05-19T05:12:39;10.10;;;5.97;;
39370;SDS011;25099;51.946;4.838;2023-05-19T05:15:05;13.15;;;6.68;;
39370;SDS011;25099;51.946;4.838;2023-05-19T05:17:31;12.63;;;6.22;;
39370;SDS011;25099;51.946;4.838;2023-05-19T05:19:59;12.02;;;6.25;;
39370;SDS011;25099;51.946;4.838;2023-05-19T05:22:25;11.38;;;6.00;;
39370;SDS011;25099;51.946;4.838;2023-05-19T05:24:51;10.52;;;5.78;;
39370;SDS011;25099;51.946;4.838;2023-05-19T05:27:17;9.27;;;6.20;;
39370;SDS011;25099;51.946;4.838;2023-05-19T05:29:42;11.05;;;6.35;;
39370;SDS011;25099;51.946;4.838;2023-05-19T05:32:08;11.65;;;6.80;;
39370;SDS011;25099;51.946;4.838;2023-05-19T05:34:34;21.42;;;6.95;;
39370;SDS011;25099;51.946;4.838;2023-05-19T05:37:02;20.58;;;6.45;;
39370;SDS011;25099;51.946;4.838;2023-05-19T05:39:27;9.65;;;6.40;;
39370;SDS011;25099;51.946;4.838;2023-05-19T05:41:53;15.65;;;7.20;;
39370;SDS011;25099;51.946;4.838;2023-05-19T05:44:18;11.77;;;5.97;;
39370;SDS011;25099;51.946;4.838;2023-05-19T05:46:44;12.65;;;6.28;;
39370;SDS011;25099;51.946;4.838;2023-05-19T05:49:10;12.20;;;6.30;;
39370;SDS011;25099;51.946;4.838;2023-05-19T05:51:37;11.80;;;7.43;;
39370;SDS011;25099;51.946;4.838;2023-05-19T05:54:03;17.08;;;7.15;;
39370;SDS011;25099;51.946;4.838;2023-05-19T05:56:30;10.35;;;6.53;;
39370;SDS011;25099;51.946;4.838;2023-05-19T05:58:57;12.00;;;6.72;;
39370;SDS011;25099;51.946;4.838;2023-05-19T06:01:23;18.70;;;7.00;;
39370;SDS011;25099;51.946;4.838;2023-05-19T06:03:49;15.88;;;6.68;;
39370;SDS011;25099;51.946;4.838;2023-05-19T06:06:15;14.88;;;7.13;;
39370;SDS011;25099;51.946;4.838;2023-05-19T06:08:40;15.18;;;7.20;;
39370;SDS011;25099;51.946;4.838;2023-05-19T06:11:06;10.38;;;6.15;;
39370;SDS011;25099;51.946;4.838;2023-05-19T06:13:36;12.70;;;6.90;;
39370;SDS011;25099;51.946;4.838;2023-05-19T06:16:02;11.85;;;7.22;;
39370;SDS011;25099;51.946;4.838;2023-05-19T06:18:28;16.15;;;8.00;;
39370;SDS011;25099;51.946;4.838;2023-05-19T06:20:54;10.38;;;6.50;;
39370;SDS011;25099;51.946;4.838;2023-05-19T06:23:20;14.77;;;7.32;;
39370;SDS011;25099;51.946;4.838;2023-05-19T06:25:46;11.68;;;7.32;;
39370;SDS011;25099;51.946;4.838;2023-05-19T06:28:11;11.73;;;6.78;;
39370;SDS011;25099;51.946;4.838;2023-05-19T06:30:37;12.40;;;6.72;;
39370;SDS011;25099;51.946;4.838;2023-05-19T06:33:02;16.40;;;7.40;;
39370;SDS011;25099;51.946;4.838;2023-05-19T06:35:28;12.52;;;7.55;;
39370;SDS011;25099;51.946;4.838;2023-05-19T06:37:54;12.18;;;7.22;;
39370;SDS011;25099;51.946;4.838;2023-05-19T06:40:21;14.50;;;7.90;;
39370;SDS011;25099;51.946;4.838;2023-05-19T06:42:47;12.82;;;7.65;;
39370;SDS011;25099;51.946;4.838;2023-05-19T06:45:12;11.32;;;7.88;;
39370;SDS011;25099;51.946;4.838;2023-05-19T06:47:38;10.98;;;6.78;;
39370;SDS011;25099;51.946;4.838;2023-05-19T06:50:07;11.18;;;6.97;;
39370;SDS011;25099;51.946;4.838;2023-05-19T06:52:33;13.55;;;6.75;;
39370;SDS011;25099;51.946;4.838;2023-05-19T06:54:59;14.73;;;7.35;;
39370;SDS011;25099;51.946;4.838;2023-05-19T06:57:24;17.70;;;7.28;;
39370;SDS011;25099;51.946;4.838;2023-05-19T06:59:50;14.93;;;6.93;;
39370;SDS011;25099;51.946;4.838;2023-05-19T07:02:15;10.57;;;7.35;;
39370;SDS011;25099;51.946;4.838;2023-05-19T07:04:41;16.10;;;7.85;;
39370;SDS011;25099;51.946;4.838;2023-05-19T07:07:07;11.50;;;7.15;;
39370;SDS011;25099;51.946;4.838;2023-05-19T07:09:32;12.38;;;7.20;;
39370;SDS011;25099;51.946;4.838;2023-05-19T07:11:58;10.13;;;8.15;;
39370;SDS011;25099;51.946;4.838;2023-05-19T07:14:25;15.95;;;7.65;;
39370;SDS011;25099;51.946;4.838;2023-05-19T07:16:50;14.27;;;6.75;;
39370;SDS011;25099;51.946;4.838;2023-05-19T07:19:16;13.23;;;7.00;;
39370;SDS011;25099;51.946;4.838;2023-05-19T07:21:43;14.75;;;7.47;;
39370;SDS011;25099;51.946;4.838;2023-05-19T07:24:09;14.65;;;7.15;;
39370;SDS011;25099;51.946;4.838;2023-05-19T07:26:35;12.30;;;6.90;;
39370;SDS011;25099;51.946;4.838;2023-05-19T07:29:01;10.35;;;6.53;;
39370;SDS011;25099;51.946;4.838;2023-05-19T07:31:26;16.02;;;7.20;;
39370;SDS011;25099;51.946;4.838;2023-05-19T07:33:52;13.05;;;6.47;;
39370;SDS011;25099;51.946;4.838;2023-05-19T07:36:18;9.25;;;5.97;;
39370;SDS011;25099;51.946;4.838;2023-05-19T07:38:44;12.30;;;6.88;;
39370;SDS011;25099;51.946;4.838;2023-05-19T07:41:10;13.43;;;6.85;;
39370;SDS011;25099;51.946;4.838;2023-05-19T07:43:36;10.40;;;5.95;;
39370;SDS011;25099;51.946;4.838;2023-05-19T07:46:01;11.27;;;5.65;;
39370;SDS011;25099;51.946;4.838;2023-05-19T07:48:27;12.43;;;6.28;;
39370;SDS011;25099;51.946;4.838;2023-05-19T07:50:53;9.77;;;5.57;;
39370;SDS011;25099;51.946;4.838;2023-05-19T07:53:19;8.60;;;4.40;;
39370;SDS011;25099;51.946;4.838;2023-05-19T07:55:45;8.68;;;4.30;;
39370;SDS011;25099;51.946;4.838;2023-05-19T07:58:10;11.85;;;5.57;;
39370;SDS011;25099;51.946;4.838;2023-05-19T08:00:36;8.73;;;5.63;;
39370;SDS011;25099;51.946;4.838;2023-05-19T08:03:02;15.10;;;6.55;;
39370;SDS011;25099;51.946;4.838;2023-05-19T08:05:27;8.70;;;5.57;;
39370;SDS011;25099;51.946;4.838;2023-05-19T08:07:54;15.18;;;5.00;;
39370;SDS011;25099;51.946;4.838;2023-05-19T08:10:20;9.32;;;4.40;;
39370;SDS011;25099;51.946;4.838;2023-05-19T08:12:46;12.85;;;4.38;;
39370;SDS011;25099;51.946;4.838;2023-05-19T08:15:11;8.40;;;4.00;;
39370;SDS011;25099;51.946;4.838;2023-05-19T08:17:37;13.88;;;4.60;;
39370;SDS011;25099;51.946;4.838;2023-05-19T08:20:03;8.38;;;5.05;;
39370;SDS011;25099;51.946;4.838;2023-05-19T08:22:31;11.02;;;4.45;;
39370;SDS011;25099;51.946;4.838;2023-05-19T08:24:57;6.40;;;4.68;;
39370;SDS011;25099;51.946;4.838;2023-05-19T08:27:22;11.15;;;4.32;;
39370;SDS011;25099;51.946;4.838;2023-05-19T08:29:48;12.98;;;4.38;;
39370;SDS011;25099;51.946;4.838;2023-05-19T08:32:14;6.72;;;3.45;;
39370;SDS011;25099;51.946;4.838;2023-05-19T08:34:39;4.38;;;3.65;;
39370;SDS011;25099;51.946;4.838;2023-05-19T08:37:05;10.68;;;3.70;;
39370;SDS011;25099;51.946;4.838;2023-05-19T08:39:31;11.23;;;4.13;;
39370;SDS011;25099;51.946;4.838;2023-05-19T08:41:58;7.82;;;4.05;;
39370;SDS011;25099;51.946;4.838;2023-05-19T08:44:24;8.45;;;4.25;;
39370;SDS011;25099;51.946;4.838;2023-05-19T08:46:50;6.28;;;4.18;;
39370;SDS011;25099;51.946;4.838;2023-05-19T08:49:26;12.82;;;2.83;;
39370;SDS011;25099;51.946;4.838;2023-05-19T08:54:49;9.25;;;3.33;;
39370;SDS011;25099;51.946;4.838;2023-05-19T08:57:18;10.57;;;3.58;;
39370;SDS011;25099;51.946;4.838;2023-05-19T08:59:45;8.45;;;2.70;;
39370;SDS011;25099;51.946;4.838;2023-05-19T09:02:12;3.53;;;2.85;;
39370;SDS011;25099;51.946;4.838;2023-05-19T09:04:39;9.00;;;3.97;;
39370;SDS011;25099;51.946;4.838;2023-05-19T09:07:05;8.13;;;2.80;;
39370;SDS011;25099;51.946;4.838;2023-05-19T09:09:31;8.63;;;2.78;;
39370;SDS011;25099;51.946;4.838;2023-05-19T09:11:56;11.75;;;3.13;;
39370;SDS011;25099;51.946;4.838;2023-05-19T09:14:22;8.98;;;3.25;;
39370;SDS011;25099;51.946;4.838;2023-05-19T09:16:48;10.20;;;3.47;;
39370;SDS011;25099;51.946;4.838;2023-05-19T09:19:16;6.35;;;2.85;;
39370;SDS011;25099;51.946;4.838;2023-05-19T09:21:42;8.30;;;3.05;;
39370;SDS011;25099;51.946;4.838;2023-05-19T09:24:09;11.82;;;2.90;;
39370;SDS011;25099;51.946;4.838;2023-05-19T09:26:38;6.22;;;2.63;;
39370;SDS011;25099;51.946;4.838;2023-05-19T09:29:11;10.13;;;2.78;;
39370;SDS011;25099;51.946;4.838;2023-05-19T09:31:38;19.65;;;3.03;;
39370;SDS011;25099;51.946;4.838;2023-05-19T09:34:04;10.85;;;2.97;;
39370;SDS011;25099;51.946;4.838;2023-05-19T09:36:38;6.50;;;2.50;;
39370;SDS011;25099;51.946;4.838;2023-05-19T09:39:11;9.30;;;2.53;;
39370;SDS011;25099;51.946;4.838;2023-05-19T09:41:38;11.38;;;2.95;;
39370;SDS011;25099;51.946;4.838;2023-05-19T09:44:03;6.32;;;2.58;;
39370;SDS011;25099;51.946;4.838;2023-05-19T09:46:31;8.63;;;2.47;;
39370;SDS011;25099;51.946;4.838;2023-05-19T09:48:58;6.43;;;2.58;;
39370;SDS011;25099;51.946;4.838;2023-05-19T09:51:24;5.68;;;2.38;;
39370;SDS011;25099;51.946;4.838;2023-05-19T09:53:51;6.55;;;1.88;;
39370;SDS011;25099;51.946;4.838;2023-05-19T09:56:17;9.13;;;2.67;;
39370;SDS011;25099;51.946;4.838;2023-05-19T09:58:47;34.42;;;2.88;;
39370;SDS011;25099;51.946;4.838;2023-05-19T10:01:13;6.57;;;2.13;;
39370;SDS011;25099;51.946;4.838;2023-05-19T10:03:39;4.63;;;2.22;;
39370;SDS011;25099;51.946;4.838;2023-05-19T10:06:06;8.45;;;2.95;;
39370;SDS011;25099;51.946;4.838;2023-05-19T10:08:33;9.40;;;2.75;;
39370;SDS011;25099;51.946;4.838;2023-05-19T10:10:59;9.40;;;2.58;;
39370;SDS011;25099;51.946;4.838;2023-05-19T10:13:26;9.25;;;3.00;;
39370;SDS011;25099;51.946;4.838;2023-05-19T10:15:53;6.63;;;2.40;;
39370;SDS011;25099;51.946;4.838;2023-05-19T10:18:19;9.23;;;2.53;;
39370;SDS011;25099;51.946;4.838;2023-05-19T10:20:49;8.35;;;2.75;;
39370;SDS011;25099;51.946;4.838;2023-05-19T10:23:15;6.55;;;2.95;;
39370;SDS011;25099;51.946;4.838;2023-05-19T10:25:41;8.68;;;2.67;;
39370;SDS011;25099;51.946;4.838;2023-05-19T10:28:08;7.80;;;3.50;;
39370;SDS011;25099;51.946;4.838;2023-05-19T10:30:38;10.27;;;3.10;;
39370;SDS011;25099;51.946;4.838;2023-05-19T10:35:40;8.25;;;3.25;;
39370;SDS011;25099;51.946;4.838;2023-05-19T10:40:44;5.13;;;2.90;;
39370;SDS011;25099;51.946;4.838;2023-05-19T10:43:48;6.85;;;2.70;;
39370;SDS011;25099;51.946;4.838;2023-05-19T10:46:25;10.75;;;2.97;;
39370;SDS011;25099;51.946;4.838;2023-05-19T10:48:52;4.55;;;2.97;;
39370;SDS011;25099;51.946;4.838;2023-05-19T10:51:18;8.88;;;3.83;;
39370;SDS011;25099;51.946;4.838;2023-05-19T10:53:43;6.20;;;2.97;;
39370;SDS011;25099;51.946;4.838;2023-05-19T10:56:26;6.82;;;2.78;;
39370;SDS011;25099;51.946;4.838;2023-05-19T10:59:00;7.15;;;2.83;;
39370;SDS011;25099;51.946;4.838;2023-05-19T11:01:30;9.50;;;3.53;;
39370;SDS011;25099;51.946;4.838;2023-05-19T11:04:01;7.88;;;3.03;;
39370;SDS011;25099;51.946;4.838;2023-05-19T11:06:30;11.07;;;3.22;;
39370;SDS011;25099;51.946;4.838;2023-05-19T11:09:18;7.95;;;2.55;;
39370;SDS011;25099;51.946;4.838;2023-05-19T11:11:46;6.82;;;2.28;;
39370;SDS011;25099;51.946;4.838;2023-05-19T11:14:13;10.63;;;2.83;;
39370;SDS011;25099;51.946;4.838;2023-05-19T11:16:51;6.25;;;2.78;;
39370;SDS011;25099;51.946;4.838;2023-05-19T11:19:28;5.15;;;2.55;;
39370;SDS011;25099;51.946;4.838;2023-05-19T11:22:07;5.63;;;2.50;;
39370;SDS011;25099;51.946;4.838;2023-05-19T11:24:35;6.43;;;2.40;;
39370;SDS011;25099;51.946;4.838;2023-05-19T11:27:32;5.30;;;2.50;;
39370;SDS011;25099;51.946;4.838;2023-05-19T11:30:08;4.85;;;2.42;;
39370;SDS011;25099;51.946;4.838;2023-05-19T11:32:43;6.47;;;2.90;;
39370;SDS011;25099;51.946;4.838;2023-05-19T11:35:11;5.60;;;2.45;;
39370;SDS011;25099;51.946;4.838;2023-05-19T11:37:38;8.68;;;2.45;;
39370;SDS011;25099;51.946;4.838;2023-05-19T11:40:07;10.68;;;3.17;;
39370;SDS011;25099;51.946;4.838;2023-05-19T11:42:33;12.10;;;3.17;;
39370;SDS011;25099;51.946;4.838;2023-05-19T11:45:00;11.95;;;2.35;;
39370;SDS011;25099;51.946;4.838;2023-05-19T11:47:26;7.22;;;2.25;;
39370;SDS011;25099;51.946;4.838;2023-05-19T11:49:53;4.57;;;2.45;;
39370;SDS011;25099;51.946;4.838;2023-05-19T11:52:24;6.85;;;2.78;;
39370;SDS011;25099;51.946;4.838;2023-05-19T11:54:51;8.80;;;2.95;;
39370;SDS011;25099;51.946;4.838;2023-05-19T11:57:17;9.18;;;2.97;;
39370;SDS011;25099;51.946;4.838;2023-05-19T11:59:43;10.43;;;2.75;;
39370;SDS011;25099;51.946;4.838;2023-05-19T12:04:37;6.93;;;2.90;;
39370;SDS011;25099;51.946;4.838;2023-05-19T12:07:03;10.00;;;3.83;;
39370;SDS011;25099;51.946;4.838;2023-05-19T12:09:29;11.27;;;3.58;;
39370;SDS011;25099;51.946;4.838;2023-05-19T12:11:54;10.98;;;2.78;;
39370;SDS011;25099;51.946;4.838;2023-05-19T12:14:20;6.20;;;3.05;;
39370;SDS011;25099;51.946;4.838;2023-05-19T12:16:46;5.75;;;2.65;;
39370;SDS011;25099;51.946;4.838;2023-05-19T12:19:11;5.22;;;2.72;;
39370;SDS011;25099;51.946;4.838;2023-05-19T12:21:37;9.27;;;3.17;;
39370;SDS011;25099;51.946;4.838;2023-05-19T12:24:03;7.30;;;2.83;;
39370;SDS011;25099;51.946;4.838;2023-05-19T12:26:29;3.17;;;2.67;;
39370;SDS011;25099;51.946;4.838;2023-05-19T12:28:55;6.68;;;2.47;;
39370;SDS011;25099;51.946;4.838;2023-05-19T12:31:22;6.00;;;2.80;;
39370;SDS011;25099;51.946;4.838;2023-05-19T12:33:48;7.03;;;3.03;;
39370;SDS011;25099;51.946;4.838;2023-05-19T12:36:16;8.75;;;3.10;;
39370;SDS011;25099;51.946;4.838;2023-05-19T12:38:43;6.55;;;3.15;;
39370;SDS011;25099;51.946;4.838;2023-05-19T12:41:12;9.30;;;3.55;;
39370;SDS011;25099;51.946;4.838;2023-05-19T12:43:38;6.55;;;3.13;;
39370;SDS011;25099;51.946;4.838;2023-05-19T12:46:11;7.45;;;3.17;;
39370;SDS011;25099;51.946;4.838;2023-05-19T12:48:44;8.98;;;2.95;;
39370;SDS011;25099;51.946;4.838;2023-05-19T12:51:19;8.85;;;2.67;;
39370;SDS011;25099;51.946;4.838;2023-05-19T12:53:45;8.80;;;3.38;;
39370;SDS011;25099;51.946;4.838;2023-05-19T12:56:14;22.48;;;3.15;;
39370;SDS011;25099;51.946;4.838;2023-05-19T12:58:40;9.32;;;2.70;;
39370;SDS011;25099;51.946;4.838;2023-05-19T13:01:13;6.25;;;3.00;;
39370;SDS011;25099;51.946;4.838;2023-05-19T13:03:40;7.53;;;3.75;;
39370;SDS011;25099;51.946;4.838;2023-05-19T13:06:06;7.43;;;2.83;;
39370;SDS011;25099;51.946;4.838;2023-05-19T13:08:33;7.40;;;3.22;;
39370;SDS011;25099;51.946;4.838;2023-05-19T13:10:59;8.18;;;3.45;;
39370;SDS011;25099;51.946;4.838;2023-05-19T13:13:24;6.97;;;3.13;;
39370;SDS011;25099;51.946;4.838;2023-05-19T13:15:50;7.85;;;3.80;;
39370;SDS011;25099;51.946;4.838;2023-05-19T13:18:15;7.35;;;3.33;;
39370;SDS011;25099;51.946;4.838;2023-05-19T13:20:42;10.48;;;3.38;;
39370;SDS011;25099;51.946;4.838;2023-05-19T13:23:10;10.00;;;4.00;;
39370;SDS011;25099;51.946;4.838;2023-05-19T13:25:36;9.80;;;3.80;;
39370;SDS011;25099;51.946;4.838;2023-05-19T13:28:02;11.77;;;4.07;;
39370;SDS011;25099;51.946;4.838;2023-05-19T13:30:32;10.18;;;3.83;;
39370;SDS011;25099;51.946;4.838;2023-05-19T13:32:59;10.85;;;3.95;;
39370;SDS011;25099;51.946;4.838;2023-05-19T13:35:25;9.52;;;4.00;;
39370;SDS011;25099;51.946;4.838;2023-05-19T13:37:51;12.40;;;4.03;;
39370;SDS011;25099;51.946;4.838;2023-05-19T13:40:16;11.18;;;4.13;;
39370;SDS011;25099;51.946;4.838;2023-05-19T13:42:43;10.45;;;4.35;;
39370;SDS011;25099;51.946;4.838;2023-05-19T13:45:09;8.25;;;3.47;;
39370;SDS011;25099;51.946;4.838;2023-05-19T13:47:35;8.20;;;3.28;;
39370;SDS011;25099;51.946;4.838;2023-05-19T13:50:01;5.57;;;3.40;;
39370;SDS011;25099;51.946;4.838;2023-05-19T13:52:28;10.63;;;4.10;;
39370;SDS011;25099;51.946;4.838;2023-05-19T13:54:54;6.47;;;3.58;;
39370;SDS011;25099;51.946;4.838;2023-05-19T13:57:20;7.65;;;3.42;;
39370;SDS011;25099;51.946;4.838;2023-05-19T13:59:55;7.82;;;3.70;;
39370;SDS011;25099;51.946;4.838;2023-05-19T14:02:20;9.48;;;3.67;;
39370;SDS011;25099;51.946;4.838;2023-05-19T14:04:46;10.98;;;3.33;;
39370;SDS011;25099;51.946;4.838;2023-05-19T14:07:12;8.32;;;3.45;;
39370;SDS011;25099;51.946;4.838;2023-05-19T14:09:37;7.90;;;3.90;;
39370;SDS011;25099;51.946;4.838;2023-05-19T14:12:03;8.88;;;3.67;;
39370;SDS011;25099;51.946;4.838;2023-05-19T14:14:31;12.52;;;3.75;;
39370;SDS011;25099;51.946;4.838;2023-05-19T14:16:56;12.50;;;3.20;;
39370;SDS011;25099;51.946;4.838;2023-05-19T14:19:22;7.47;;;3.30;;
39370;SDS011;25099;51.946;4.838;2023-05-19T14:21:53;7.55;;;3.25;;
39370;SDS011;25099;51.946;4.838;2023-05-19T14:24:20;8.57;;;3.10;;
39370;SDS011;25099;51.946;4.838;2023-05-19T14:26:46;10.32;;;3.75;;
39370;SDS011;25099;51.946;4.838;2023-05-19T14:29:11;9.02;;;3.40;;
39370;SDS011;25099;51.946;4.838;2023-05-19T14:31:37;6.43;;;3.10;;
39370;SDS011;25099;51.946;4.838;2023-05-19T14:34:02;13.35;;;3.70;;
39370;SDS011;25099;51.946;4.838;2023-05-19T14:36:29;19.23;;;3.63;;
39370;SDS011;25099;51.946;4.838;2023-05-19T14:38:55;5.20;;;3.50;;
39370;SDS011;25099;51.946;4.838;2023-05-19T14:41:20;7.75;;;3.30;;
39370;SDS011;25099;51.946;4.838;2023-05-19T14:43:46;7.53;;;3.15;;
39370;SDS011;25099;51.946;4.838;2023-05-19T14:46:11;7.28;;;3.10;;
39370;SDS011;25099;51.946;4.838;2023-05-19T14:48:37;8.30;;;3.40;;
39370;SDS011;25099;51.946;4.838;2023-05-19T14:51:03;8.43;;;3.92;;
39370;SDS011;25099;51.946;4.838;2023-05-19T14:53:30;8.73;;;3.63;;
39370;SDS011;25099;51.946;4.838;2023-05-19T14:55:56;12.77;;;3.92;;
39370;SDS011;25099;51.946;4.838;2023-05-19T14:58:21;8.20;;;3.85;;
39370;SDS011;25099;51.946;4.838;2023-05-19T15:00:48;10.05;;;3.92;;
39370;SDS011;25099;51.946;4.838;2023-05-19T15:03:14;7.43;;;2.95;;
39370;SDS011;25099;51.946;4.838;2023-05-19T15:05:40;7.80;;;3.05;;
39370;SDS011;25099;51.946;4.838;2023-05-19T15:08:05;9.43;;;3.10;;
39370;SDS011;25099;51.946;4.838;2023-05-19T15:10:31;11.90;;;3.22;;
39370;SDS011;25099;51.946;4.838;2023-05-19T15:12:57;9.52;;;3.00;;
39370;SDS011;25099;51.946;4.838;2023-05-19T15:15:24;15.68;;;2.88;;